sensor_id;sensor_type;location;lat;lon;timestamp;pressure;altitude;pressure_sealevel;temperature;humidity
14067;BME280;7108;42.684;23.350;2023-02-01T00:02:02;95443.06;;;1.36;100.00
14067;BME280;7108;42.684;23.350;2023-02-01T00:04:28;95463.31;;;1.46;100.00
14067;BME280;7108;42.684;23.350;2023-02-01T00:06:54;95474.03;;;1.54;100.00
14067;BME280;7108;42.684;23.350;2023-02-01T00:09:19;95473.06;;;1.50;100.00
14067;BME280;7108;42.684;23.350;2023-02-01T00:11:45;95467.44;;;1.52;100.00
14067;BME280;7108;42.684;23.350;2023-02-01T00:14:11;95450.22;;;1.36;100.00
14067;BME280;7108;42.684;23.350;2023-02-01T00:16:36;95467.84;;;1.45;100.00
14067;BME280;7108;42.684;23.350;2023-02-01T00:19:04;95470.19;;;1.47;100.00
14067;BME280;7108;42.684;23.350;2023-02-01T00:21:31;95460.94;;;1.44;100.00
14067;BME280;7108;42.684;23.350;2023-02-01T00:23:57;95463.03;;;1.47;100.00
14067;BME280;7108;42.684;23.350;2023-02-01T00:26:34;95462.75;;;1.49;100.00
14067;BME280;7108;42.684;23.350;2023-02-01T00:29:01;95454.56;;;1.45;100.00
14067;BME280;7108;42.684;23.350;2023-02-01T00:31:26;95447.00;;;1.39;100.00
14067;BME280;7108;42.684;23.350;2023-02-01T00:33:52;95455.06;;;1.47;100.00
14067;BME280;7108;42.684;23.350;2023-02-01T00:36:17;95459.19;;;1.53;100.00
14067;BME280;7108;42.684;23.350;2023-02-01T00:38:43;95439.03;;;1.39;100.00
14067;BME280;7108;42.684;23.350;2023-02-01T00:41:20;95454.47;;;1.50;100.00
14067;BME280;7108;42.684;23.350;2023-02-01T00:43:46;95441.31;;;1.45;100.00
14067;BME280;7108;42.684;23.350;2023-02-01T00:46:13;95436.41;;;1.39;100.00
14067;BME280;7108;42.684;23.350;2023-02-01T00:48:39;95446.22;;;1.52;100.00
14067;BME280;7108;42.684;23.350;2023-02-01T00:51:17;95449.47;;;1.62;100.00
14067;BME280;7108;42.684;23.350;2023-02-01T00:53:44;95445.22;;;1.61;100.00
14067;BME280;7108;42.684;23.350;2023-02-01T00:56:11;95446.81;;;1.62;100.00
14067;BME280;7108;42.684;23.350;2023-02-01T00:58:36;95445.34;;;1.56;100.00
14067;BME280;7108;42.684;23.350;2023-02-01T01:01:17;95438.13;;;1.57;100.00
14067;BME280;7108;42.684;23.350;2023-02-01T01:03:45;95437.94;;;1.53;100.00
14067;BME280;7108;42.684;23.350;2023-02-01T01:06:14;95418.88;;;1.51;100.00
14067;BME280;7108;42.684;23.350;2023-02-01T01:08:40;95430.69;;;1.59;100.00
14067;BME280;7108;42.684;23.350;2023-02-01T01:11:19;95437.56;;;1.60;100.00
14067;BME280;7108;42.684;23.350;2023-02-01T01:13:47;95414.75;;;1.45;100.00
14067;BME280;7108;42.684;23.350;2023-02-01T01:16:13;95419.97;;;1.50;100.00
14067;BME280;7108;42.684;23.350;2023-02-01T01:18:38;95424.97;;;1.52;100.00
14067;BME280;7108;42.684;23.350;2023-02-01T01:21:05;95422.63;;;1.50;100.00
14067;BME280;7108;42.684;23.350;2023-02-01T01:23:30;95424.09;;;1.56;100.00
14067;BME280;7108;42.684;23.350;2023-02-01T01:25:56;95423.78;;;1.58;100.00
14067;BME280;7108;42.684;23.350;2023-02-01T01:28:21;95433.22;;;1.64;100.00
14067;BME280;7108;42.684;23.350;2023-02-01T01:30:47;95423.59;;;1.54;100.00
14067;BME280;7108;42.684;23.350;2023-02-01T01:33:12;95428.31;;;1.57;100.00
14067;BME280;7108;42.684;23.350;2023-02-01T01:35:38;95431.44;;;1.59;100.00
14067;BME280;7108;42.684;23.350;2023-02-01T01:38:03;95438.25;;;1.65;100.00
14067;BME280;7108;42.684;23.350;2023-02-01T01:40:30;95444.06;;;1.67;100.00
14067;BME280;7108;42.684;23.350;2023-02-01T01:42:55;95432.94;;;1.52;100.00
14067;BME280;7108;42.684;23.350;2023-02-01T01:45:29;95433.44;;;1.54;100.00
14067;BME280;7108;42.684;23.350;2023-02-01T01:48:04;95419.56;;;1.43;100.00
14067;BME280;7108;42.684;23.350;2023-02-01T01:50:34;95425.56;;;1.49;100.00
14067;BME280;7108;42.684;23.350;2023-02-01T01:53:03;95429.91;;;1.45;100.00
14067;BME280;7108;42.684;23.350;2023-02-01T01:55:33;95419.28;;;1.31;100.00
14067;BME280;7108;42.684;23.350;2023-02-01T01:58:05;95418.78;;;1.29;100.00
14067;BME280;7108;42.684;23.350;2023-02-01T02:00:31;95438.84;;;1.35;100.00
14067;BME280;7108;42.684;23.350;2023-02-01T02:03:02;95433.13;;;1.28;100.00
14067;BME280;7108;42.684;23.350;2023-02-01T02:05:29;95418.88;;;1.11;100.00
14067;BME280;7108;42.684;23.350;2023-02-01T02:07:58;95444.03;;;1.27;100.00
14067;BME280;7108;42.684;23.350;2023-02-01T02:10:24;95447.31;;;1.24;100.00
14067;BME280;7108;42.684;23.350;2023-02-01T02:13:10;95413.88;;;1.10;100.00
14067;BME280;7108;42.684;23.350;2023-02-01T02:15:42;95441.38;;;1.14;100.00
14067;BME280;7108;42.684;23.350;2023-02-01T02:18:15;95416.53;;;1.10;100.00
14067;BME280;7108;42.684;23.350;2023-02-01T02:26:35;95425.34;;;1.05;100.00
14067;BME280;7108;42.684;23.350;2023-02-01T02:29:34;95417.28;;;0.97;100.00
14067;BME280;7108;42.684;23.350;2023-02-01T02:35:14;95413.56;;;0.98;100.00
14067;BME280;7108;42.684;23.350;2023-02-01T02:41:02;95433.09;;;1.02;100.00
14067;BME280;7108;42.684;23.350;2023-02-01T02:43:39;95437.34;;;1.03;100.00
14067;BME280;7108;42.684;23.350;2023-02-01T02:46:37;95413.34;;;0.94;100.00
14067;BME280;7108;42.684;23.350;2023-02-01T02:49:27;95433.09;;;1.02;100.00
14067;BME280;7108;42.684;23.350;2023-02-01T02:51:59;95422.41;;;0.93;100.00
14067;BME280;7108;42.684;23.350;2023-02-01T02:54:47;95396.63;;;0.80;100.00
14067;BME280;7108;42.684;23.350;2023-02-01T02:57:20;95428.69;;;0.97;100.00
14067;BME280;7108;42.684;23.350;2023-02-01T03:00:12;95400.88;;;0.81;100.00
14067;BME280;7108;42.684;23.350;2023-02-01T03:02:57;95411.00;;;0.93;100.00
14067;BME280;7108;42.684;23.350;2023-02-01T03:05:44;95415.13;;;0.99;100.00
14067;BME280;7108;42.684;23.350;2023-02-01T03:08:15;95423.88;;;0.99;100.00
14067;BME280;7108;42.684;23.350;2023-02-01T03:18:54;95438.63;;;1.05;100.00
14067;BME280;7108;42.684;23.350;2023-02-01T03:21:27;95450.41;;;1.13;100.00
14067;BME280;7108;42.684;23.350;2023-02-01T03:23:57;95433.81;;;1.07;100.00
14067;BME280;7108;42.684;23.350;2023-02-01T03:26:26;95431.03;;;0.99;100.00
14067;BME280;7108;42.684;23.350;2023-02-01T03:29:00;95448.94;;;1.07;100.00
14067;BME280;7108;42.684;23.350;2023-02-01T03:31:27;95461.22;;;1.16;100.00
14067;BME280;7108;42.684;23.350;2023-02-01T03:33:53;95461.72;;;1.18;100.00
14067;BME280;7108;42.684;23.350;2023-02-01T03:36:26;95463.59;;;1.18;100.00
14067;BME280;7108;42.684;23.350;2023-02-01T03:39:00;95461.94;;;1.22;100.00
14067;BME280;7108;42.684;23.350;2023-02-01T03:41:42;95464.19;;;1.28;100.00
14067;BME280;7108;42.684;23.350;2023-02-01T03:44:41;95452.59;;;1.24;100.00
14067;BME280;7108;42.684;23.350;2023-02-01T03:47:13;95460.94;;;1.31;100.00
14067;BME280;7108;42.684;23.350;2023-02-01T03:49:44;95458.19;;;1.36;100.00
14067;BME280;7108;42.684;23.350;2023-02-01T03:52:14;95461.94;;;1.35;100.00
14067;BME280;7108;42.684;23.350;2023-02-01T03:54:42;95455.16;;;1.29;100.00
14067;BME280;7108;42.684;23.350;2023-02-01T03:57:12;95450.84;;;1.33;100.00
14067;BME280;7108;42.684;23.350;2023-02-01T03:59:42;95437.06;;;1.18;100.00
14067;BME280;7108;42.684;23.350;2023-02-01T04:02:07;95440.00;;;1.16;100.00
14067;BME280;7108;42.684;23.350;2023-02-01T04:04:34;95455.91;;;1.16;100.00
14067;BME280;7108;42.684;23.350;2023-02-01T04:07:00;95456.81;;;1.25;100.00
14067;BME280;7108;42.684;23.350;2023-02-01T04:09:25;95444.91;;;1.23;100.00
14067;BME280;7108;42.684;23.350;2023-02-01T04:11:51;95434.13;;;1.19;100.00
14067;BME280;7108;42.684;23.350;2023-02-01T04:14:16;95440.63;;;1.27;100.00
14067;BME280;7108;42.684;23.350;2023-02-01T04:16:42;95433.81;;;1.21;100.00
14067;BME280;7108;42.684;23.350;2023-02-01T04:19:07;95450.72;;;1.25;100.00
14067;BME280;7108;42.684;23.350;2023-02-01T04:21:33;95438.16;;;1.17;100.00
14067;BME280;7108;42.684;23.350;2023-02-01T04:23:58;95431.28;;;1.16;100.00
14067;BME280;7108;42.684;23.350;2023-02-01T04:26:24;95458.28;;;1.31;100.00
14067;BME280;7108;42.684;23.350;2023-02-01T04:28:49;95461.75;;;1.31;100.00
14067;BME280;7108;42.684;23.350;2023-02-01T04:31:16;95432.16;;;1.25;100.00
14067;BME280;7108;42.684;23.350;2023-02-01T04:33:42;95454.16;;;1.38;100.00
14067;BME280;7108;42.684;23.350;2023-02-01T04:36:08;95438.44;;;1.28;100.00
14067;BME280;7108;42.684;23.350;2023-02-01T04:38:34;95459.09;;;1.45;100.00
14067;BME280;7108;42.684;23.350;2023-02-01T04:40:59;95432.25;;;1.33;100.00
14067;BME280;7108;42.684;23.350;2023-02-01T04:43:25;95457.44;;;1.49;100.00
14067;BME280;7108;42.684;23.350;2023-02-01T04:45:51;95446.91;;;1.44;100.00
14067;BME280;7108;42.684;23.350;2023-02-01T04:48:18;95462.34;;;1.55;100.00
14067;BME280;7108;42.684;23.350;2023-02-01T04:50:45;95464.69;;;1.57;100.00
14067;BME280;7108;42.684;23.350;2023-02-01T04:53:13;95465.75;;;1.56;100.00
14067;BME280;7108;42.684;23.350;2023-02-01T04:55:39;95445.13;;;1.39;100.00
14067;BME280;7108;42.684;23.350;2023-02-01T04:58:05;95465.19;;;1.59;100.00
14067;BME280;7108;42.684;23.350;2023-02-01T05:00:30;95463.41;;;1.54;100.00
14067;BME280;7108;42.684;23.350;2023-02-01T05:02:56;95467.44;;;1.52;100.00
14067;BME280;7108;42.684;23.350;2023-02-01T05:05:21;95477.19;;;1.56;100.00
14067;BME280;7108;42.684;23.350;2023-02-01T05:07:46;95486.91;;;1.61;100.00
14067;BME280;7108;42.684;23.350;2023-02-01T05:10:12;95487.22;;;1.59;100.00
14067;BME280;7108;42.684;23.350;2023-02-01T05:12:38;95461.75;;;1.45;100.00
14067;BME280;7108;42.684;23.350;2023-02-01T05:15:32;95498.13;;;1.58;100.00
14067;BME280;7108;42.684;23.350;2023-02-01T05:17:58;95492.81;;;1.58;100.00
14067;BME280;7108;42.684;23.350;2023-02-01T05:20:24;95481.91;;;1.59;100.00
14067;BME280;7108;42.684;23.350;2023-02-01T05:22:50;95488.22;;;1.63;100.00
14067;BME280;7108;42.684;23.350;2023-02-01T05:25:15;95480.63;;;1.57;100.00
14067;BME280;7108;42.684;23.350;2023-02-01T05:27:41;95487.22;;;1.59;100.00
14067;BME280;7108;42.684;23.350;2023-02-01T05:30:08;95489.88;;;1.59;100.00
14067;BME280;7108;42.684;23.350;2023-02-01T05:32:34;95486.72;;;1.57;100.00
14067;BME280;7108;42.684;23.350;2023-02-01T05:34:59;95490.75;;;1.55;100.00
14067;BME280;7108;42.684;23.350;2023-02-01T05:37:25;95482.19;;;1.58;100.00
14067;BME280;7108;42.684;23.350;2023-02-01T05:39:51;95483.59;;;1.69;100.00
14067;BME280;7108;42.684;23.350;2023-02-01T05:42:16;95478.38;;;1.64;100.00
14067;BME280;7108;42.684;23.350;2023-02-01T05:44:42;95489.56;;;1.74;100.00
14067;BME280;7108;42.684;23.350;2023-02-01T05:47:08;95495.56;;;1.80;100.00
14067;BME280;7108;42.684;23.350;2023-02-01T05:49:33;95486.63;;;1.76;100.00
14067;BME280;7108;42.684;23.350;2023-02-01T05:51:59;95497.53;;;1.88;100.00
14067;BME280;7108;42.684;23.350;2023-02-01T05:54:24;95487.09;;;1.91;100.00
14067;BME280;7108;42.684;23.350;2023-02-01T05:56:50;95458.59;;;1.83;100.00
14067;BME280;7108;42.684;23.350;2023-02-01T05:59:15;95458.88;;;1.82;100.00
14067;BME280;7108;42.684;23.350;2023-02-01T06:01:40;95458.50;;;1.75;100.00
14067;BME280;7108;42.684;23.350;2023-02-01T06:04:09;95503.53;;;1.93;100.00
14067;BME280;7108;42.684;23.350;2023-02-01T06:06:34;95492.31;;;1.96;100.00
14067;BME280;7108;42.684;23.350;2023-02-01T06:09:02;95486.78;;;2.06;100.00
14067;BME280;7108;42.684;23.350;2023-02-01T06:11:28;95500.47;;;2.13;100.00
14067;BME280;7108;42.684;23.350;2023-02-01T06:13:53;95496.34;;;2.07;100.00
14067;BME280;7108;42.684;23.350;2023-02-01T06:16:20;95477.06;;;2.01;100.00
14067;BME280;7108;42.684;23.350;2023-02-01T06:18:46;95481.78;;;2.04;100.00
14067;BME280;7108;42.684;23.350;2023-02-01T06:21:11;95500.66;;;2.16;100.00
14067;BME280;7108;42.684;23.350;2023-02-01T06:23:38;95479.50;;;2.11;100.00
14067;BME280;7108;42.684;23.350;2023-02-01T06:26:07;95486.75;;;2.19;100.00
14067;BME280;7108;42.684;23.350;2023-02-01T06:28:33;95483.91;;;2.16;100.00
14067;BME280;7108;42.684;23.350;2023-02-01T06:31:08;95480.16;;;2.17;100.00
14067;BME280;7108;42.684;23.350;2023-02-01T06:33:34;95480.88;;;2.22;100.00
14067;BME280;7108;42.684;23.350;2023-02-01T06:36:02;95493.00;;;2.37;100.00
14067;BME280;7108;42.684;23.350;2023-02-01T06:38:28;95485.34;;;2.35;100.00
14067;BME280;7108;42.684;23.350;2023-02-01T06:40:55;95480.63;;;2.32;100.00
14067;BME280;7108;42.684;23.350;2023-02-01T06:43:22;95508.84;;;2.42;100.00
14067;BME280;7108;42.684;23.350;2023-02-01T06:45:48;95499.78;;;2.43;100.00
14067;BME280;7108;42.684;23.350;2023-02-01T06:48:13;95514.16;;;2.42;100.00
14067;BME280;7108;42.684;23.350;2023-02-01T06:50:39;95504.03;;;2.44;100.00
14067;BME280;7108;42.684;23.350;2023-02-01T06:53:04;95491.28;;;2.32;100.00
14067;BME280;7108;42.684;23.350;2023-02-01T06:55:30;95503.38;;;2.38;100.00
14067;BME280;7108;42.684;23.350;2023-02-01T06:57:55;95525.69;;;2.51;100.00
14067;BME280;7108;42.684;23.350;2023-02-01T07:00:24;95525.19;;;2.49;100.00
14067;BME280;7108;42.684;23.350;2023-02-01T07:02:50;95524.41;;;2.48;100.00
14067;BME280;7108;42.684;23.350;2023-02-01T07:05:16;95515.84;;;2.38;100.00
14067;BME280;7108;42.684;23.350;2023-02-01T07:07:41;95539.34;;;2.58;100.00
14067;BME280;7108;42.684;23.350;2023-02-01T07:10:07;95529.22;;;2.46;100.00
14067;BME280;7108;42.684;23.350;2023-02-01T07:12:33;95545.16;;;2.59;100.00
14067;BME280;7108;42.684;23.350;2023-02-01T07:14:58;95515.44;;;2.44;100.00
14067;BME280;7108;42.684;23.350;2023-02-01T07:17:23;95544.38;;;2.59;100.00
14067;BME280;7108;42.684;23.350;2023-02-01T07:19:49;95548.22;;;2.53;100.00
14067;BME280;7108;42.684;23.350;2023-02-01T07:22:18;95539.44;;;2.53;100.00
14067;BME280;7108;42.684;23.350;2023-02-01T07:24:43;95530.50;;;2.49;100.00
14067;BME280;7108;42.684;23.350;2023-02-01T07:27:09;95567.41;;;2.63;100.00
14067;BME280;7108;42.684;23.350;2023-02-01T07:29:34;95562.47;;;2.70;100.00
14067;BME280;7108;42.684;23.350;2023-02-01T07:31:59;95553.91;;;2.60;100.00
14067;BME280;7108;42.684;23.350;2023-02-01T07:34:26;95555.25;;;2.71;100.00
14067;BME280;7108;42.684;23.350;2023-02-01T07:36:52;95552.03;;;2.74;100.00
14067;BME280;7108;42.684;23.350;2023-02-01T07:39:17;95551.03;;;2.70;100.00
14067;BME280;7108;42.684;23.350;2023-02-01T07:41:42;95559.56;;;2.80;100.00
14067;BME280;7108;42.684;23.350;2023-02-01T07:44:09;95567.25;;;2.82;100.00
14067;BME280;7108;42.684;23.350;2023-02-01T07:46:35;95576.31;;;2.81;100.00
14067;BME280;7108;42.684;23.350;2023-02-01T07:49:01;95560.81;;;2.61;100.00
14067;BME280;7108;42.684;23.350;2023-02-01T07:51:26;95569.06;;;2.73;100.00
14067;BME280;7108;42.684;23.350;2023-02-01T07:53:52;95575.84;;;2.79;100.00
14067;BME280;7108;42.684;23.350;2023-02-01T07:56:19;95582.44;;;2.81;100.00
14067;BME280;7108;42.684;23.350;2023-02-01T07:58:49;95577.91;;;2.82;100.00
14067;BME280;7108;42.684;23.350;2023-02-01T08:01:23;95577.34;;;2.71;100.00
14067;BME280;7108;42.684;23.350;2023-02-01T08:03:57;95601.72;;;2.87;100.00
14067;BME280;7108;42.684;23.350;2023-02-01T08:06:27;95576.94;;;2.78;100.00
14067;BME280;7108;42.684;23.350;2023-02-01T08:08:54;95535.78;;;2.62;100.00
14067;BME280;7108;42.684;23.350;2023-02-01T08:11:20;95588.00;;;2.93;100.00
14067;BME280;7108;42.684;23.350;2023-02-01T08:13:46;95592.13;;;2.99;100.00
14067;BME280;7108;42.684;23.350;2023-02-01T08:16:13;95583.56;;;3.02;100.00
14067;BME280;7108;42.684;23.350;2023-02-01T08:18:39;95581.59;;;2.94;100.00
14067;BME280;7108;42.684;23.350;2023-02-01T08:21:10;95572.16;;;2.88;100.00
14067;BME280;7108;42.684;23.350;2023-02-01T08:23:38;95595.78;;;3.03;100.00
14067;BME280;7108;42.684;23.350;2023-02-01T08:26:13;95595.94;;;3.07;100.00
14067;BME280;7108;42.684;23.350;2023-02-01T08:28:44;95575.88;;;3.01;100.00
14067;BME280;7108;42.684;23.350;2023-02-01T08:31:13;95589.22;;;3.09;100.00
14067;BME280;7108;42.684;23.350;2023-02-01T08:33:40;95592.56;;;3.15;100.00
14067;BME280;7108;42.684;23.350;2023-02-01T08:36:07;95602.78;;;3.21;100.00
14067;BME280;7108;42.684;23.350;2023-02-01T08:38:38;95583.38;;;3.21;100.00
14067;BME280;7108;42.684;23.350;2023-02-01T08:41:08;95562.03;;;3.12;100.00
14067;BME280;7108;42.684;23.350;2023-02-01T08:43:35;95579.03;;;3.24;100.00
14067;BME280;7108;42.684;23.350;2023-02-01T08:46:01;95577.31;;;3.28;100.00
14067;BME280;7108;42.684;23.350;2023-02-01T08:48:26;95581.00;;;3.41;100.00
14067;BME280;7108;42.684;23.350;2023-02-01T08:50:51;95561.91;;;3.39;100.00
14067;BME280;7108;42.684;23.350;2023-02-01T08:53:17;95566.66;;;3.50;100.00
14067;BME280;7108;42.684;23.350;2023-02-01T08:55:50;95565.91;;;3.58;100.00
14067;BME280;7108;42.684;23.350;2023-02-01T08:58:15;95582.28;;;3.74;100.00
14067;BME280;7108;42.684;23.350;2023-02-01T09:00:45;95558.91;;;3.62;100.00
14067;BME280;7108;42.684;23.350;2023-02-01T09:03:11;95564.00;;;3.81;100.00
14067;BME280;7108;42.684;23.350;2023-02-01T09:05:38;95569.47;;;3.76;100.00
14067;BME280;7108;42.684;23.350;2023-02-01T09:08:03;95575.00;;;3.88;100.00
14067;BME280;7108;42.684;23.350;2023-02-01T09:10:29;95582.00;;;3.75;100.00
14067;BME280;7108;42.684;23.350;2023-02-01T09:12:54;95578.19;;;3.68;100.00
14067;BME280;7108;42.684;23.350;2023-02-01T09:15:20;95601.91;;;3.78;100.00
14067;BME280;7108;42.684;23.350;2023-02-01T09:17:45;95589.84;;;3.80;100.00
14067;BME280;7108;42.684;23.350;2023-02-01T09:20:11;95578.38;;;3.71;100.00
14067;BME280;7108;42.684;23.350;2023-02-01T09:22:37;95589.47;;;3.65;100.00
14067;BME280;7108;42.684;23.350;2023-02-01T09:25:06;95573.16;;;3.66;100.00
14067;BME280;7108;42.684;23.350;2023-02-01T09:27:31;95591.91;;;3.83;100.00
14067;BME280;7108;42.684;23.350;2023-02-01T09:29:57;95574.75;;;3.67;100.00
14067;BME280;7108;42.684;23.350;2023-02-01T09:32:23;95579.09;;;3.93;100.00
14067;BME280;7108;42.684;23.350;2023-02-01T09:34:50;95566.69;;;3.89;100.00
14067;BME280;7108;42.684;23.350;2023-02-01T09:37:15;95578.81;;;4.03;100.00
14067;BME280;7108;42.684;23.350;2023-02-01T09:39:41;95579.28;;;3.97;100.00
14067;BME280;7108;42.684;23.350;2023-02-01T09:48:02;95559.34;;;3.64;100.00
14067;BME280;7108;42.684;23.350;2023-02-01T09:50:38;95553.34;;;3.89;100.00
14067;BME280;7108;42.684;23.350;2023-02-01T09:53:09;95567.34;;;3.94;100.00
14067;BME280;7108;42.684;23.350;2023-02-01T09:55:45;95542.56;;;3.86;100.00
14067;BME280;7108;42.684;23.350;2023-02-01T09:58:17;95525.63;;;3.90;100.00
14067;BME280;7108;42.684;23.350;2023-02-01T10:00:54;95539.00;;;4.07;100.00
14067;BME280;7108;42.684;23.350;2023-02-01T10:03:24;95542.81;;;4.14;100.00
14067;BME280;7108;42.684;23.350;2023-02-01T10:05:56;95542.81;;;4.23;100.00
14067;BME280;7108;42.684;23.350;2023-02-01T10:11:31;95537.97;;;4.33;100.00
14067;BME280;7108;42.684;23.350;2023-02-01T10:14:33;95537.53;;;4.40;99.17
14067;BME280;7108;42.684;23.350;2023-02-01T10:20:44;95518.44;;;4.71;97.83
14067;BME280;7108;42.684;23.350;2023-02-01T10:26:12;95511.34;;;5.18;95.33
14067;BME280;7108;42.684;23.350;2023-02-01T10:28:43;95512.25;;;5.30;92.25
14067;BME280;7108;42.684;23.350;2023-02-01T10:31:09;95505.22;;;5.25;85.67
14067;BME280;7108;42.684;23.350;2023-02-01T10:33:41;95506.31;;;4.99;83.85
14067;BME280;7108;42.684;23.350;2023-02-01T10:36:22;95496.41;;;5.17;86.83
14067;BME280;7108;42.684;23.350;2023-02-01T10:38:48;95507.91;;;5.09;85.01
14067;BME280;7108;42.684;23.350;2023-02-01T10:41:17;95495.81;;;5.11;81.98
14067;BME280;7108;42.684;23.350;2023-02-01T10:43:52;95486.69;;;5.04;84.11
14067;BME280;7108;42.684;23.350;2023-02-01T10:46:20;95461.69;;;5.17;86.24
14067;BME280;7108;42.684;23.350;2023-02-01T10:48:45;95474.06;;;5.46;85.83
14067;BME280;7108;42.684;23.350;2023-02-01T10:51:19;95469.31;;;5.43;82.82
14067;BME280;7108;42.684;23.350;2023-02-01T10:53:54;95477.00;;;5.53;80.07
14067;BME280;7108;42.684;23.350;2023-02-01T10:56:27;95483.84;;;5.71;83.62
14067;BME280;7108;42.684;23.350;2023-02-01T10:59:14;95469.75;;;5.62;80.83
14067;BME280;7108;42.684;23.350;2023-02-01T11:01:42;95482.31;;;5.62;78.84
14067;BME280;7108;42.684;23.350;2023-02-01T11:04:13;95470.25;;;5.47;73.74
14067;BME280;7108;42.684;23.350;2023-02-01T11:06:43;95473.88;;;5.51;77.53
14067;BME280;7108;42.684;23.350;2023-02-01T11:17:02;95478.50;;;5.17;79.08
14067;BME280;7108;42.684;23.350;2023-02-01T11:19:47;95453.72;;;5.08;81.17
14067;BME280;7108;42.684;23.350;2023-02-01T11:22:21;95474.59;;;5.23;76.33
14067;BME280;7108;42.684;23.350;2023-02-01T11:24:46;95468.75;;;5.29;75.18
14067;BME280;7108;42.684;23.350;2023-02-01T11:27:16;95449.41;;;5.24;75.54
14067;BME280;7108;42.684;23.350;2023-02-01T11:29:45;95440.75;;;5.35;76.60
14067;BME280;7108;42.684;23.350;2023-02-01T11:32:13;95453.72;;;5.62;77.43
14067;BME280;7108;42.684;23.350;2023-02-01T11:34:50;95444.28;;;5.65;77.36
14067;BME280;7108;42.684;23.350;2023-02-01T11:37:27;95452.34;;;5.93;75.48
14067;BME280;7108;42.684;23.350;2023-02-01T11:40:00;95440.97;;;5.96;71.74
14067;BME280;7108;42.684;23.350;2023-02-01T11:42:27;95449.25;;;5.83;71.85
14067;BME280;7108;42.684;23.350;2023-02-01T11:47:41;95436.88;;;5.99;69.71
14067;BME280;7108;42.684;23.350;2023-02-01T11:50:19;95426.66;;;6.01;69.82
14067;BME280;7108;42.684;23.350;2023-02-01T12:14:52;95409.25;;;5.86;68.72
14067;BME280;7108;42.684;23.350;2023-02-01T12:20:19;95429.03;;;6.23;69.43
14067;BME280;7108;42.684;23.350;2023-02-01T12:31:21;95424.78;;;6.22;69.96
14067;BME280;7108;42.684;23.350;2023-02-01T12:34:15;95414.94;;;6.14;69.88
14067;BME280;7108;42.684;23.350;2023-02-01T12:42:08;95424.13;;;6.04;70.65
14067;BME280;7108;42.684;23.350;2023-02-01T12:47:20;95417.00;;;6.08;70.51
14067;BME280;7108;42.684;23.350;2023-02-01T12:49:53;95416.44;;;6.23;69.10
14067;BME280;7108;42.684;23.350;2023-02-01T12:52:27;95401.56;;;6.34;69.00
14067;BME280;7108;42.684;23.350;2023-02-01T12:57:58;95412.88;;;6.40;65.65
14067;BME280;7108;42.684;23.350;2023-02-01T13:00:34;95418.25;;;6.51;66.07
14067;BME280;7108;42.684;23.350;2023-02-01T13:06:15;95415.66;;;6.84;62.30
14067;BME280;7108;42.684;23.350;2023-02-01T13:11:40;95370.22;;;6.55;59.57
14067;BME280;7108;42.684;23.350;2023-02-01T13:16:46;95409.97;;;6.65;59.93
14067;BME280;7108;42.684;23.350;2023-02-01T13:19:18;95398.94;;;6.66;59.47
14067;BME280;7108;42.684;23.350;2023-02-01T13:22:00;95388.06;;;6.51;59.65
14067;BME280;7108;42.684;23.350;2023-02-01T13:24:54;95404.56;;;6.53;61.16
14067;BME280;7108;42.684;23.350;2023-02-01T13:27:22;95415.06;;;6.38;61.35
14067;BME280;7108;42.684;23.350;2023-02-01T13:29:58;95408.28;;;6.40;62.65
14067;BME280;7108;42.684;23.350;2023-02-01T13:35:20;95400.78;;;6.34;59.79
14067;BME280;7108;42.684;23.350;2023-02-01T13:38:27;95407.31;;;6.24;60.11
14067;BME280;7108;42.684;23.350;2023-02-01T13:43:28;95416.03;;;6.13;61.06
14067;BME280;7108;42.684;23.350;2023-02-01T13:45:57;95391.94;;;5.92;62.62
14067;BME280;7108;42.684;23.350;2023-02-01T13:48:48;95408.94;;;6.17;62.21
14067;BME280;7108;42.684;23.350;2023-02-01T13:51:15;95401.28;;;6.07;62.15
14067;BME280;7108;42.684;23.350;2023-02-01T13:53:46;95398.75;;;6.31;60.93
14067;BME280;7108;42.684;23.350;2023-02-01T13:56:13;95400.94;;;6.37;60.16
14067;BME280;7108;42.684;23.350;2023-02-01T13:58:42;95377.28;;;6.19;60.88
14067;BME280;7108;42.684;23.350;2023-02-01T14:03:49;95398.16;;;6.66;60.40
14067;BME280;7108;42.684;23.350;2023-02-01T14:11:52;95412.59;;;6.33;60.54
14067;BME280;7108;42.684;23.350;2023-02-01T14:19:29;95393.88;;;6.33;61.66
14067;BME280;7108;42.684;23.350;2023-02-01T14:22:27;95399.56;;;6.31;62.59
14067;BME280;7108;42.684;23.350;2023-02-01T14:24:56;95381.06;;;6.38;64.07
14067;BME280;7108;42.684;23.350;2023-02-01T14:27:25;95377.28;;;6.39;61.72
14067;BME280;7108;42.684;23.350;2023-02-01T14:29:59;95379.50;;;6.17;62.40
14067;BME280;7108;42.684;23.350;2023-02-01T14:32:37;95358.78;;;6.14;63.70
14067;BME280;7108;42.684;23.350;2023-02-01T14:35:08;95386.38;;;6.26;65.02
14067;BME280;7108;42.684;23.350;2023-02-01T14:37:38;95386.75;;;6.37;64.00
14067;BME280;7108;42.684;23.350;2023-02-01T14:50:31;95403.91;;;6.36;66.04
14067;BME280;7108;42.684;23.350;2023-02-01T15:01:30;95405.53;;;6.08;65.72
14067;BME280;7108;42.684;23.350;2023-02-01T15:06:39;95374.41;;;5.83;68.28
14067;BME280;7108;42.684;23.350;2023-02-01T15:09:15;95390.88;;;5.85;70.65
14067;BME280;7108;42.684;23.350;2023-02-01T15:14:40;95411.50;;;5.85;70.89
14067;BME280;7108;42.684;23.350;2023-02-01T15:17:27;95406.16;;;5.85;71.88
14067;BME280;7108;42.684;23.350;2023-02-01T15:20:00;95388.41;;;5.72;73.46
14067;BME280;7108;42.684;23.350;2023-02-01T15:22:28;95386.72;;;5.67;73.00
14067;BME280;7108;42.684;23.350;2023-02-01T15:24:58;95407.13;;;5.72;73.81
14067;BME280;7108;42.684;23.350;2023-02-01T15:27:25;95400.53;;;5.69;73.74
14067;BME280;7108;42.684;23.350;2023-02-01T15:29:51;95392.38;;;5.66;73.57
14067;BME280;7108;42.684;23.350;2023-02-01T15:32:35;95363.53;;;5.51;73.76
14067;BME280;7108;42.684;23.350;2023-02-01T15:35:01;95380.91;;;5.65;73.59
14067;BME280;7108;42.684;23.350;2023-02-01T15:37:28;95393.50;;;5.65;73.61
14067;BME280;7108;42.684;23.350;2023-02-01T15:42:30;95384.66;;;5.64;72.14